sensor_id;sensor_type;location;lat;lon;timestamp;P1;durP1;ratioP1;P2;durP2;ratioP2
53281;SDS011;39167;52.794;6.892;2023-03-12T00:00:29;13.45;;;6.65;;
53281;SDS011;39167;52.794;6.892;2023-03-12T00:02:55;11.75;;;6.45;;
53281;SDS011;39167;52.794;6.892;2023-03-12T00:05:22;13.15;;;7.13;;
53281;SDS011;39167;52.794;6.892;2023-03-12T00:07:50;15.68;;;7.13;;
53281;SDS011;39167;52.794;6.892;2023-03-12T00:10:16;11.73;;;7.40;;
53281;SDS011;39167;52.794;6.892;2023-03-12T00:12:43;12.82;;;7.63;;
53281;SDS011;39167;52.794;6.892;2023-03-12T00:15:08;13.15;;;6.88;;
53281;SDS011;39167;52.794;6.892;2023-03-12T00:17:34;12.13;;;7.63;;
53281;SDS011;39167;52.794;6.892;2023-03-12T00:20:00;10.85;;;7.18;;
53281;SDS011;39167;52.794;6.892;2023-03-12T00:22:26;13.20;;;6.80;;
53281;SDS011;39167;52.794;6.892;2023-03-12T00:24:52;11.43;;;7.03;;
53281;SDS011;39167;52.794;6.892;2023-03-12T00:27:19;12.15;;;6.68;;
53281;SDS011;39167;52.794;6.892;2023-03-12T00:29:46;13.68;;;6.63;;
53281;SDS011;39167;52.794;6.892;2023-03-12T00:32:13;10.73;;;6.88;;
53281;SDS011;39167;52.794;6.892;2023-03-12T00:34:39;12.52;;;6.72;;
53281;SDS011;39167;52.794;6.892;2023-03-12T00:37:05;13.98;;;7.60;;
53281;SDS011;39167;52.794;6.892;2023-03-12T00:39:32;10.30;;;6.95;;
53281;SDS011;39167;52.794;6.892;2023-03-12T00:41:58;13.02;;;7.28;;
53281;SDS011;39167;52.794;6.892;2023-03-12T00:44:24;10.60;;;6.60;;
53281;SDS011;39167;52.794;6.892;2023-03-12T00:46:50;16.92;;;7.70;;
53281;SDS011;39167;52.794;6.892;2023-03-12T00:49:15;14.23;;;7.20;;
53281;SDS011;39167;52.794;6.892;2023-03-12T00:51:41;12.93;;;7.18;;
53281;SDS011;39167;52.794;6.892;2023-03-12T00:54:07;13.93;;;6.72;;
53281;SDS011;39167;52.794;6.892;2023-03-12T00:56:33;14.25;;;6.70;;
53281;SDS011;39167;52.794;6.892;2023-03-12T00:58:59;11.80;;;6.53;;
53281;SDS011;39167;52.794;6.892;2023-03-12T01:01:24;12.75;;;5.93;;
53281;SDS011;39167;52.794;6.892;2023-03-12T01:03:51;9.52;;;6.10;;
53281;SDS011;39167;52.794;6.892;2023-03-12T01:06:18;9.80;;;5.35;;
53281;SDS011;39167;52.794;6.892;2023-03-12T01:08:44;11.15;;;5.85;;
53281;SDS011;39167;52.794;6.892;2023-03-12T01:11:13;13.15;;;5.45;;
53281;SDS011;39167;52.794;6.892;2023-03-12T01:13:40;11.25;;;5.07;;
53281;SDS011;39167;52.794;6.892;2023-03-12T01:16:06;9.35;;;4.82;;
53281;SDS011;39167;52.794;6.892;2023-03-12T01:18:32;8.95;;;4.80;;
53281;SDS011;39167;52.794;6.892;2023-03-12T01:20:58;12.65;;;4.72;;
53281;SDS011;39167;52.794;6.892;2023-03-12T01:23:24;8.82;;;4.65;;
53281;SDS011;39167;52.794;6.892;2023-03-12T01:25:50;9.50;;;4.50;;
53281;SDS011;39167;52.794;6.892;2023-03-12T01:28:19;7.93;;;4.55;;
53281;SDS011;39167;52.794;6.892;2023-03-12T01:30:45;10.88;;;4.72;;
53281;SDS011;39167;52.794;6.892;2023-03-12T01:33:11;14.45;;;5.13;;
53281;SDS011;39167;52.794;6.892;2023-03-12T01:35:38;13.20;;;5.35;;
53281;SDS011;39167;52.794;6.892;2023-03-12T01:38:05;22.90;;;6.50;;
53281;SDS011;39167;52.794;6.892;2023-03-12T01:40:33;17.48;;;6.65;;
53281;SDS011;39167;52.794;6.892;2023-03-12T01:43:13;13.38;;;6.57;;
53281;SDS011;39167;52.794;6.892;2023-03-12T01:46:04;11.07;;;5.63;;
53281;SDS011;39167;52.794;6.892;2023-03-12T01:48:40;10.73;;;5.13;;
53281;SDS011;39167;52.794;6.892;2023-03-12T01:51:09;10.50;;;5.05;;
53281;SDS011;39167;52.794;6.892;2023-03-12T01:53:37;10.75;;;4.65;;
53281;SDS011;39167;52.794;6.892;2023-03-12T01:56:06;9.00;;;4.20;;
53281;SDS011;39167;52.794;6.892;2023-03-12T01:58:33;11.13;;;4.65;;
53281;SDS011;39167;52.794;6.892;2023-03-12T02:01:02;10.85;;;4.57;;
53281;SDS011;39167;52.794;6.892;2023-03-12T02:03:28;9.82;;;4.82;;
53281;SDS011;39167;52.794;6.892;2023-03-12T02:06:08;8.88;;;4.63;;
53281;SDS011;39167;52.794;6.892;2023-03-12T02:08:39;12.05;;;4.40;;
53281;SDS011;39167;52.794;6.892;2023-03-12T02:11:08;9.73;;;4.10;;
53281;SDS011;39167;52.794;6.892;2023-03-12T02:13:34;8.02;;;3.47;;
53281;SDS011;39167;52.794;6.892;2023-03-12T02:16:00;6.13;;;3.63;;
53281;SDS011;39167;52.794;6.892;2023-03-12T02:18:27;8.18;;;4.13;;
53281;SDS011;39167;52.794;6.892;2023-03-12T02:23:40;13.02;;;4.15;;
53281;SDS011;39167;52.794;6.892;2023-03-12T02:26:16;9.68;;;4.68;;
53281;SDS011;39167;52.794;6.892;2023-03-12T02:28:44;11.30;;;4.15;;
53281;SDS011;39167;52.794;6.892;2023-03-12T02:31:14;11.25;;;4.20;;
53281;SDS011;39167;52.794;6.892;2023-03-12T02:33:44;9.75;;;4.28;;
53281;SDS011;39167;52.794;6.892;2023-03-12T02:36:10;13.90;;;4.53;;
53281;SDS011;39167;52.794;6.892;2023-03-12T02:38:41;8.68;;;4.50;;
53281;SDS011;39167;52.794;6.892;2023-03-12T02:41:31;10.18;;;4.68;;
53281;SDS011;39167;52.794;6.892;2023-03-12T02:43:58;8.70;;;4.43;;
53281;SDS011;39167;52.794;6.892;2023-03-12T02:46:43;9.80;;;4.68;;
53281;SDS011;39167;52.794;6.892;2023-03-12T02:49:11;9.13;;;4.10;;
53281;SDS011;39167;52.794;6.892;2023-03-12T02:51:38;8.70;;;5.07;;
53281;SDS011;39167;52.794;6.892;2023-03-12T02:54:05;8.98;;;4.82;;
53281;SDS011;39167;52.794;6.892;2023-03-12T02:56:31;12.52;;;5.22;;
53281;SDS011;39167;52.794;6.892;2023-03-12T02:58:57;11.07;;;4.90;;
53281;SDS011;39167;52.794;6.892;2023-03-12T03:01:24;9.55;;;4.70;;
53281;SDS011;39167;52.794;6.892;2023-03-12T03:03:50;8.25;;;4.72;;
53281;SDS011;39167;52.794;6.892;2023-03-12T03:06:16;10.68;;;5.15;;
53281;SDS011;39167;52.794;6.892;2023-03-12T03:08:42;10.82;;;5.18;;
53281;SDS011;39167;52.794;6.892;2023-03-12T03:11:08;8.57;;;5.00;;
53281;SDS011;39167;52.794;6.892;2023-03-12T03:13:34;11.07;;;5.55;;
53281;SDS011;39167;52.794;6.892;2023-03-12T03:15:59;13.90;;;6.22;;
53281;SDS011;39167;52.794;6.892;2023-03-12T03:18:26;11.95;;;6.00;;
53281;SDS011;39167;52.794;6.892;2023-03-12T03:20:56;12.75;;;5.75;;
53281;SDS011;39167;52.794;6.892;2023-03-12T03:23:23;12.17;;;6.03;;
53281;SDS011;39167;52.794;6.892;2023-03-12T03:25:49;11.32;;;5.95;;
53281;SDS011;39167;52.794;6.892;2023-03-12T03:28:17;15.55;;;6.10;;
53281;SDS011;39167;52.794;6.892;2023-03-12T03:30:48;17.67;;;6.45;;
53281;SDS011;39167;52.794;6.892;2023-03-12T03:33:16;14.38;;;6.50;;
53281;SDS011;39167;52.794;6.892;2023-03-12T03:35:41;11.27;;;6.13;;
53281;SDS011;39167;52.794;6.892;2023-03-12T03:38:07;11.27;;;6.13;;
53281;SDS011;39167;52.794;6.892;2023-03-12T03:40:33;11.52;;;5.85;;
53281;SDS011;39167;52.794;6.892;2023-03-12T03:42:58;12.75;;;5.88;;
53281;SDS011;39167;52.794;6.892;2023-03-12T03:45:24;18.50;;;6.72;;
53281;SDS011;39167;52.794;6.892;2023-03-12T03:47:50;11.07;;;6.55;;
53281;SDS011;39167;52.794;6.892;2023-03-12T03:50:16;10.65;;;5.30;;
53281;SDS011;39167;52.794;6.892;2023-03-12T03:52:42;10.93;;;6.05;;
53281;SDS011;39167;52.794;6.892;2023-03-12T03:55:08;12.10;;;6.07;;
53281;SDS011;39167;52.794;6.892;2023-03-12T03:57:34;12.13;;;5.60;;
53281;SDS011;39167;52.794;6.892;2023-03-12T03:59:59;14.65;;;6.55;;
53281;SDS011;39167;52.794;6.892;2023-03-12T04:02:26;11.27;;;6.47;;
53281;SDS011;39167;52.794;6.892;2023-03-12T04:04:55;10.80;;;5.80;;
53281;SDS011;39167;52.794;6.892;2023-03-12T04:07:22;10.07;;;6.00;;
53281;SDS011;39167;52.794;6.892;2023-03-12T04:09:47;13.25;;;6.43;;
53281;SDS011;39167;52.794;6.892;2023-03-12T04:12:13;10.82;;;6.40;;
53281;SDS011;39167;52.794;6.892;2023-03-12T04:14:40;13.43;;;6.53;;
53281;SDS011;39167;52.794;6.892;2023-03-12T04:17:06;12.82;;;6.75;;
53281;SDS011;39167;52.794;6.892;2023-03-12T04:19:33;11.88;;;6.97;;
53281;SDS011;39167;52.794;6.892;2023-03-12T04:21:58;11.32;;;6.72;;
53281;SDS011;39167;52.794;6.892;2023-03-12T04:24:24;12.27;;;7.15;;
53281;SDS011;39167;52.794;6.892;2023-03-12T04:26:50;21.95;;;7.63;;
53281;SDS011;39167;52.794;6.892;2023-03-12T04:29:16;13.40;;;7.53;;
53281;SDS011;39167;52.794;6.892;2023-03-12T04:31:43;16.70;;;6.53;;
53281;SDS011;39167;52.794;6.892;2023-03-12T04:34:09;10.38;;;6.43;;
53281;SDS011;39167;52.794;6.892;2023-03-12T04:36:35;13.75;;;6.55;;
53281;SDS011;39167;52.794;6.892;2023-03-12T04:39:01;16.67;;;7.95;;
53281;SDS011;39167;52.794;6.892;2023-03-12T04:41:31;11.55;;;6.72;;
53281;SDS011;39167;52.794;6.892;2023-03-12T04:43:58;13.18;;;6.75;;
53281;SDS011;39167;52.794;6.892;2023-03-12T04:46:24;13.65;;;6.90;;
53281;SDS011;39167;52.794;6.892;2023-03-12T04:48:50;12.63;;;6.93;;
53281;SDS011;39167;52.794;6.892;2023-03-12T04:51:16;12.23;;;7.32;;
53281;SDS011;39167;52.794;6.892;2023-03-12T04:53:42;12.68;;;6.70;;
53281;SDS011;39167;52.794;6.892;2023-03-12T04:56:08;13.07;;;7.15;;
53281;SDS011;39167;52.794;6.892;2023-03-12T04:58:34;15.10;;;6.80;;
53281;SDS011;39167;52.794;6.892;2023-03-12T05:01:00;15.75;;;7.45;;
53281;SDS011;39167;52.794;6.892;2023-03-12T05:03:26;14.80;;;7.93;;
53281;SDS011;39167;52.794;6.892;2023-03-12T05:05:52;12.32;;;7.53;;
53281;SDS011;39167;52.794;6.892;2023-03-12T05:08:17;11.40;;;7.65;;
53281;SDS011;39167;52.794;6.892;2023-03-12T05:10:43;19.73;;;8.13;;
53281;SDS011;39167;52.794;6.892;2023-03-12T05:13:13;17.50;;;7.88;;
53281;SDS011;39167;52.794;6.892;2023-03-12T05:15:40;18.42;;;8.25;;
53281;SDS011;39167;52.794;6.892;2023-03-12T05:18:06;12.93;;;7.28;;
53281;SDS011;39167;52.794;6.892;2023-03-12T05:20:32;11.30;;;7.32;;
53281;SDS011;39167;52.794;6.892;2023-03-12T05:22:58;15.50;;;7.22;;
53281;SDS011;39167;52.794;6.892;2023-03-12T05:25:24;12.25;;;7.30;;
53281;SDS011;39167;52.794;6.892;2023-03-12T05:27:49;11.02;;;6.63;;
53281;SDS011;39167;52.794;6.892;2023-03-12T05:30:15;19.02;;;8.60;;
53281;SDS011;39167;52.794;6.892;2023-03-12T05:32:41;11.95;;;6.82;;
53281;SDS011;39167;52.794;6.892;2023-03-12T05:35:07;14.77;;;7.60;;
53281;SDS011;39167;52.794;6.892;2023-03-12T05:37:33;11.25;;;6.93;;
53281;SDS011;39167;52.794;6.892;2023-03-12T05:39:59;16.48;;;7.35;;
53281;SDS011;39167;52.794;6.892;2023-03-12T05:42:25;12.93;;;7.47;;
53281;SDS011;39167;52.794;6.892;2023-03-12T05:44:51;12.07;;;6.90;;
53281;SDS011;39167;52.794;6.892;2023-03-12T05:47:17;14.02;;;6.80;;
53281;SDS011;39167;52.794;6.892;2023-03-12T05:49:43;9.32;;;6.80;;
53281;SDS011;39167;52.794;6.892;2023-03-12T05:52:09;11.82;;;6.82;;
53281;SDS011;39167;52.794;6.892;2023-03-12T05:54:35;22.60;;;7.15;;
53281;SDS011;39167;52.794;6.892;2023-03-12T05:57:01;15.02;;;7.68;;
53281;SDS011;39167;52.794;6.892;2023-03-12T05:59:27;14.77;;;7.03;;
53281;SDS011;39167;52.794;6.892;2023-03-12T06:01:54;11.60;;;6.88;;
53281;SDS011;39167;52.794;6.892;2023-03-12T06:04:19;12.30;;;7.53;;
53281;SDS011;39167;52.794;6.892;2023-03-12T06:06:45;16.33;;;8.10;;
53281;SDS011;39167;52.794;6.892;2023-03-12T06:09:11;11.57;;;7.22;;
53281;SDS011;39167;52.794;6.892;2023-03-12T06:11:37;13.75;;;7.32;;
53281;SDS011;39167;52.794;6.892;2023-03-12T06:14:03;16.20;;;7.22;;
53281;SDS011;39167;52.794;6.892;2023-03-12T06:16:29;13.07;;;7.93;;
53281;SDS011;39167;52.794;6.892;2023-03-12T06:18:56;13.60;;;7.72;;
53281;SDS011;39167;52.794;6.892;2023-03-12T06:21:24;18.45;;;8.10;;
53281;SDS011;39167;52.794;6.892;2023-03-12T06:23:52;13.52;;;7.70;;
53281;SDS011;39167;52.794;6.892;2023-03-12T06:26:18;14.07;;;8.52;;
53281;SDS011;39167;52.794;6.892;2023-03-12T06:28:45;12.68;;;7.65;;
53281;SDS011;39167;52.794;6.892;2023-03-12T06:31:12;14.23;;;8.02;;
53281;SDS011;39167;52.794;6.892;2023-03-12T06:33:39;13.43;;;8.25;;
53281;SDS011;39167;52.794;6.892;2023-03-12T06:36:05;15.52;;;8.68;;
53281;SDS011;39167;52.794;6.892;2023-03-12T06:38:32;16.45;;;8.93;;
53281;SDS011;39167;52.794;6.892;2023-03-12T06:41:00;14.05;;;8.50;;
53281;SDS011;39167;52.794;6.892;2023-03-12T06:43:27;15.60;;;8.10;;
53281;SDS011;39167;52.794;6.892;2023-03-12T06:45:54;14.02;;;8.63;;
53281;SDS011;39167;52.794;6.892;2023-03-12T06:48:22;11.90;;;7.88;;
53281;SDS011;39167;52.794;6.892;2023-03-12T06:50:48;14.63;;;9.43;;
53281;SDS011;39167;52.794;6.892;2023-03-12T06:53:15;12.98;;;8.00;;
53281;SDS011;39167;52.794;6.892;2023-03-12T06:55:42;15.65;;;8.85;;
53281;SDS011;39167;52.794;6.892;2023-03-12T06:58:08;16.77;;;8.70;;
53281;SDS011;39167;52.794;6.892;2023-03-12T07:00:34;20.35;;;10.55;;
53281;SDS011;39167;52.794;6.892;2023-03-12T07:03:00;23.13;;;11.00;;
53281;SDS011;39167;52.794;6.892;2023-03-12T07:05:25;14.98;;;10.07;;
53281;SDS011;39167;52.794;6.892;2023-03-12T07:07:51;17.25;;;8.98;;
53281;SDS011;39167;52.794;6.892;2023-03-12T07:10:17;13.10;;;8.73;;
53281;SDS011;39167;52.794;6.892;2023-03-12T07:12:43;17.85;;;9.07;;
53281;SDS011;39167;52.794;6.892;2023-03-12T07:15:10;14.38;;;8.68;;
53281;SDS011;39167;52.794;6.892;2023-03-12T07:17:36;16.25;;;9.05;;
53281;SDS011;39167;52.794;6.892;2023-03-12T07:20:02;18.25;;;9.73;;
53281;SDS011;39167;52.794;6.892;2023-03-12T07:22:29;15.98;;;8.85;;
53281;SDS011;39167;52.794;6.892;2023-03-12T07:24:54;12.73;;;8.23;;
53281;SDS011;39167;52.794;6.892;2023-03-12T07:27:20;13.00;;;7.72;;
53281;SDS011;39167;52.794;6.892;2023-03-12T07:29:46;16.38;;;7.82;;
53281;SDS011;39167;52.794;6.892;2023-03-12T07:32:11;14.07;;;8.30;;
53281;SDS011;39167;52.794;6.892;2023-03-12T07:34:37;15.90;;;8.07;;
53281;SDS011;39167;52.794;6.892;2023-03-12T07:37:03;11.95;;;7.68;;
53281;SDS011;39167;52.794;6.892;2023-03-12T07:39:29;10.93;;;7.43;;
53281;SDS011;39167;52.794;6.892;2023-03-12T07:41:55;15.65;;;7.63;;
53281;SDS011;39167;52.794;6.892;2023-03-12T07:44:21;11.90;;;8.38;;
53281;SDS011;39167;52.794;6.892;2023-03-12T07:46:47;12.65;;;7.32;;
53281;SDS011;39167;52.794;6.892;2023-03-12T07:49:13;12.85;;;8.07;;
53281;SDS011;39167;52.794;6.892;2023-03-12T07:51:38;12.88;;;8.50;;
53281;SDS011;39167;52.794;6.892;2023-03-12T07:54:04;10.70;;;8.02;;
53281;SDS011;39167;52.794;6.892;2023-03-12T07:56:30;14.65;;;8.95;;
53281;SDS011;39167;52.794;6.892;2023-03-12T07:58:56;13.57;;;8.02;;
53281;SDS011;39167;52.794;6.892;2023-03-12T08:01:22;12.40;;;8.10;;
53281;SDS011;39167;52.794;6.892;2023-03-12T08:03:49;16.33;;;9.23;;
53281;SDS011;39167;52.794;6.892;2023-03-12T08:06:15;16.42;;;8.43;;
53281;SDS011;39167;52.794;6.892;2023-03-12T08:08:41;14.18;;;8.18;;
53281;SDS011;39167;52.794;6.892;2023-03-12T08:11:07;15.18;;;8.63;;
53281;SDS011;39167;52.794;6.892;2023-03-12T08:13:33;16.20;;;8.00;;
53281;SDS011;39167;52.794;6.892;2023-03-12T08:15:59;12.65;;;8.25;;
53281;SDS011;39167;52.794;6.892;2023-03-12T08:18:25;16.10;;;8.68;;
53281;SDS011;39167;52.794;6.892;2023-03-12T08:20:52;14.73;;;8.38;;
53281;SDS011;39167;52.794;6.892;2023-03-12T08:23:19;16.42;;;8.18;;
53281;SDS011;39167;52.794;6.892;2023-03-12T08:25:45;12.85;;;8.55;;
53281;SDS011;39167;52.794;6.892;2023-03-12T08:28:15;15.48;;;8.38;;
53281;SDS011;39167;52.794;6.892;2023-03-12T08:30:51;12.25;;;8.85;;
53281;SDS011;39167;52.794;6.892;2023-03-12T08:33:19;13.40;;;8.13;;
53281;SDS011;39167;52.794;6.892;2023-03-12T08:35:45;13.50;;;8.35;;
53281;SDS011;39167;52.794;6.892;2023-03-12T08:38:11;13.90;;;8.63;;
53281;SDS011;39167;52.794;6.892;2023-03-12T08:40:37;14.52;;;8.90;;
53281;SDS011;39167;52.794;6.892;2023-03-12T08:43:03;15.18;;;8.20;;
53281;SDS011;39167;52.794;6.892;2023-03-12T08:45:29;13.77;;;9.25;;
53281;SDS011;39167;52.794;6.892;2023-03-12T08:47:55;15.48;;;8.00;;
53281;SDS011;39167;52.794;6.892;2023-03-12T08:50:20;12.68;;;7.88;;
53281;SDS011;39167;52.794;6.892;2023-03-12T08:52:48;12.48;;;8.07;;
53281;SDS011;39167;52.794;6.892;2023-03-12T08:55:13;16.38;;;8.77;;
53281;SDS011;39167;52.794;6.892;2023-03-12T08:57:39;11.95;;;8.18;;
53281;SDS011;39167;52.794;6.892;2023-03-12T09:00:05;12.45;;;7.85;;
53281;SDS011;39167;52.794;6.892;2023-03-12T09:02:36;13.45;;;8.18;;
53281;SDS011;39167;52.794;6.892;2023-03-12T09:05:02;12.68;;;7.80;;
53281;SDS011;39167;52.794;6.892;2023-03-12T09:07:32;15.18;;;8.95;;
53281;SDS011;39167;52.794;6.892;2023-03-12T09:09:58;17.48;;;10.25;;
53281;SDS011;39167;52.794;6.892;2023-03-12T09:12:23;13.45;;;9.30;;
53281;SDS011;39167;52.794;6.892;2023-03-12T09:14:50;16.40;;;8.52;;
53281;SDS011;39167;52.794;6.892;2023-03-12T09:17:16;18.98;;;8.93;;
53281;SDS011;39167;52.794;6.892;2023-03-12T09:19:42;16.25;;;8.43;;
53281;SDS011;39167;52.794;6.892;2023-03-12T09:22:08;12.93;;;9.23;;
53281;SDS011;39167;52.794;6.892;2023-03-12T09:24:34;16.40;;;9.43;;
53281;SDS011;39167;52.794;6.892;2023-03-12T09:27:00;13.55;;;9.48;;
53281;SDS011;39167;52.794;6.892;2023-03-12T09:29:28;17.42;;;10.63;;
53281;SDS011;39167;52.794;6.892;2023-03-12T09:31:58;17.17;;;11.20;;
53281;SDS011;39167;52.794;6.892;2023-03-12T09:34:23;16.35;;;11.13;;
53281;SDS011;39167;52.794;6.892;2023-03-12T09:36:49;16.08;;;11.02;;
53281;SDS011;39167;52.794;6.892;2023-03-12T09:39:15;19.73;;;11.45;;
53281;SDS011;39167;52.794;6.892;2023-03-12T09:41:42;16.50;;;11.48;;
53281;SDS011;39167;52.794;6.892;2023-03-12T09:47:02;18.35;;;11.82;;
53281;SDS011;39167;52.794;6.892;2023-03-12T09:49:34;15.73;;;11.52;;
53281;SDS011;39167;52.794;6.892;2023-03-12T09:54:58;16.95;;;11.02;;
53281;SDS011;39167;52.794;6.892;2023-03-12T09:57:31;18.77;;;12.02;;
53281;SDS011;39167;52.794;6.892;2023-03-12T09:59:57;18.75;;;12.52;;
53281;SDS011;39167;52.794;6.892;2023-03-12T10:04:51;18.48;;;12.38;;
53281;SDS011;39167;52.794;6.892;2023-03-12T10:10:34;15.40;;;11.00;;
53281;SDS011;39167;52.794;6.892;2023-03-12T10:13:05;17.75;;;12.10;;
53281;SDS011;39167;52.794;6.892;2023-03-12T10:24:19;17.42;;;12.75;;
53281;SDS011;39167;52.794;6.892;2023-03-12T10:27:00;18.67;;;11.18;;
53281;SDS011;39167;52.794;6.892;2023-03-12T10:29:30;18.70;;;12.35;;
53281;SDS011;39167;52.794;6.892;2023-03-12T10:32:47;20.42;;;11.85;;
53281;SDS011;39167;52.794;6.892;2023-03-12T10:34:46;21.10;;;12.63;;
53281;SDS011;39167;52.794;6.892;2023-03-12T10:37:23;16.70;;;12.88;;
53281;SDS011;39167;52.794;6.892;2023-03-12T10:39:54;19.52;;;13.23;;
53281;SDS011;39167;52.794;6.892;2023-03-12T10:42:21;19.65;;;13.35;;
53281;SDS011;39167;52.794;6.892;2023-03-12T10:44:53;20.05;;;12.50;;
53281;SDS011;39167;52.794;6.892;2023-03-12T10:49:51;19.60;;;13.45;;
53281;SDS011;39167;52.794;6.892;2023-03-12T10:52:21;17.42;;;13.38;;
53281;SDS011;39167;52.794;6.892;2023-03-12T10:54:51;20.30;;;13.73;;
53281;SDS011;39167;52.794;6.892;2023-03-12T10:57:18;19.92;;;13.63;;
53281;SDS011;39167;52.794;6.892;2023-03-12T10:59:46;21.50;;;13.77;;
53281;SDS011;39167;52.794;6.892;2023-03-12T11:02:29;21.70;;;14.13;;
53281;SDS011;39167;52.794;6.892;2023-03-12T11:05:02;18.30;;;14.43;;
53281;SDS011;39167;52.794;6.892;2023-03-12T11:07:51;22.13;;;15.48;;
53281;SDS011;39167;52.794;6.892;2023-03-12T11:10:19;22.65;;;14.35;;
53281;SDS011;39167;52.794;6.892;2023-03-12T11:13:52;25.95;;;16.63;;
53281;SDS011;39167;52.794;6.892;2023-03-12T11:15:47;32.38;;;19.50;;
53281;SDS011;39167;52.794;6.892;2023-03-12T11:18:33;21.33;;;14.80;;
53281;SDS011;39167;52.794;6.892;2023-03-12T11:23:42;27.30;;;17.65;;
53281;SDS011;39167;52.794;6.892;2023-03-12T11:29:11;31.13;;;19.25;;
53281;SDS011;39167;52.794;6.892;2023-03-12T11:34:36;27.15;;;17.00;;
53281;SDS011;39167;52.794;6.892;2023-03-12T11:40:12;41.42;;;23.20;;
53281;SDS011;39167;52.794;6.892;2023-03-12T11:51:16;25.05;;;14.60;;
53281;SDS011;39167;52.794;6.892;2023-03-12T11:56:39;25.08;;;16.10;;
53281;SDS011;39167;52.794;6.892;2023-03-12T11:59:36;22.17;;;14.68;;
53281;SDS011;39167;52.794;6.892;2023-03-12T12:02:24;27.73;;;16.55;;
53281;SDS011;39167;52.794;6.892;2023-03-12T12:10:55;25.67;;;16.60;;
53281;SDS011;39167;52.794;6.892;2023-03-12T12:21:34;28.45;;;16.27;;
53281;SDS011;39167;52.794;6.892;2023-03-12T12:27:07;32.90;;;17.33;;
53281;SDS011;39167;52.794;6.892;2023-03-12T12:38:11;28.52;;;14.88;;
53281;SDS011;39167;52.794;6.892;2023-03-12T12:40:43;24.55;;;15.23;;
53281;SDS011;39167;52.794;6.892;2023-03-12T12:43:29;31.48;;;15.68;;
53281;SDS011;39167;52.794;6.892;2023-03-12T12:46:01;26.77;;;15.55;;
53281;SDS011;39167;52.794;6.892;2023-03-12T12:48:37;30.17;;;15.75;;
53281;SDS011;39167;52.794;6.892;2023-03-12T12:51:10;27.25;;;14.85;;
53281;SDS011;39167;52.794;6.892;2023-03-12T12:53:43;29.30;;;15.23;;
53281;SDS011;39167;52.794;6.892;2023-03-12T13:01:28;26.80;;;15.13;;
53281;SDS011;39167;52.794;6.892;2023-03-12T13:04:01;31.95;;;16.33;;
53281;SDS011;39167;52.794;6.892;2023-03-12T13:06:52;28.38;;;16.13;;
53281;SDS011;39167;52.794;6.892;2023-03-12T13:09:34;30.55;;;16.00;;
53281;SDS011;39167;52.794;6.892;2023-03-12T13:20:33;32.58;;;17.92;;
53281;SDS011;39167;52.794;6.892;2023-03-12T13:23:22;40.72;;;18.90;;
53281;SDS011;39167;52.794;6.892;2023-03-12T13:26:02;35.33;;;17.75;;
53281;SDS011;39167;52.794;6.892;2023-03-12T13:33:51;46.28;;;21.27;;
53281;SDS011;39167;52.794;6.892;2023-03-12T13:36:20;46.30;;;20.95;;
53281;SDS011;39167;52.794;6.892;2023-03-12T13:46:57;57.00;;;23.10;;
53281;SDS011;39167;52.794;6.892;2023-03-12T13:50:11;59.65;;;23.55;;
53281;SDS011;39167;52.794;6.892;2023-03-12T13:52:25;56.53;;;22.17;;
53281;SDS011;39167;52.794;6.892;2023-03-12T13:57:50;66.15;;;24.27;;
53281;SDS011;39167;52.794;6.892;2023-03-12T14:00:25;58.63;;;23.52;;
53281;SDS011;39167;52.794;6.892;2023-03-12T14:02:58;57.13;;;22.92;;
53281;SDS011;39167;52.794;6.892;2023-03-12T14:05:27;57.03;;;23.40;;
53281;SDS011;39167;52.794;6.892;2023-03-12T14:08:01;58.22;;;23.48;;
53281;SDS011;39167;52.794;6.892;2023-03-12T14:16:09;58.28;;;22.65;;
53281;SDS011;39167;52.794;6.892;2023-03-12T14:18:47;57.45;;;22.00;;
53281;SDS011;39167;52.794;6.892;2023-03-12T14:21:15;67.57;;;21.45;;
53281;SDS011;39167;52.794;6.892;2023-03-12T14:23:47;63.60;;;23.40;;
53281;SDS011;39167;52.794;6.892;2023-03-12T14:26:22;60.33;;;22.13;;
53281;SDS011;39167;52.794;6.892;2023-03-12T14:28:58;57.75;;;20.10;;
53281;SDS011;39167;52.794;6.892;2023-03-12T14:31:28;61.88;;;21.17;;
53281;SDS011;39167;52.794;6.892;2023-03-12T14:34:07;56.17;;;20.55;;
53281;SDS011;39167;52.794;6.892;2023-03-12T14:36:45;50.90;;;20.67;;
53281;SDS011;39167;52.794;6.892;2023-03-12T14:39:42;70.88;;;22.38;;
53281;SDS011;39167;52.794;6.892;2023-03-12T14:42:32;62.28;;;20.13;;
53281;SDS011;39167;52.794;6.892;2023-03-12T14:45:01;62.28;;;20.63;;
53281;SDS011;39167;52.794;6.892;2023-03-12T14:47:38;60.35;;;20.60;;
53281;SDS011;39167;52.794;6.892;2023-03-12T14:50:05;55.08;;;19.88;;
53281;SDS011;39167;52.794;6.892;2023-03-12T14:52:31;57.88;;;19.38;;
53281;SDS011;39167;52.794;6.892;2023-03-12T14:54:59;57.67;;;19.00;;
53281;SDS011;39167;52.794;6.892;2023-03-12T14:57:31;46.45;;;18.20;;
53281;SDS011;39167;52.794;6.892;2023-03-12T14:59:58;52.45;;;18.27;;
53281;SDS011;39167;52.794;6.892;2023-03-12T15:02:25;71.53;;;18.73;;
53281;SDS011;39167;52.794;6.892;2023-03-12T15:04:53;58.50;;;17.92;;
53281;SDS011;39167;52.794;6.892;2023-03-12T15:07:23;59.35;;;18.45;;
53281;SDS011;39167;52.794;6.892;2023-03-12T15:09:55;51.60;;;18.05;;
53281;SDS011;39167;52.794;6.892;2023-03-12T15:12:22;50.85;;;18.38;;
53281;SDS011;39167;52.794;6.892;2023-03-12T15:14:51;54.33;;;17.45;;
53281;SDS011;39167;52.794;6.892;2023-03-12T15:17:21;45.83;;;16.33;;
53281;SDS011;39167;52.794;6.892;2023-03-12T15:19:52;54.08;;;15.52;;
53281;SDS011;39167;52.794;6.892;2023-03-12T15:22:21;52.67;;;14.93;;
53281;SDS011;39167;52.794;6.892;2023-03-12T15:24:51;52.53;;;15.83;;
53281;SDS011;39167;52.794;6.892;2023-03-12T15:29:50;54.63;;;14.13;;
53281;SDS011;39167;52.794;6.892;2023-03-12T15:32:17;54.67;;;14.05;;
53281;SDS011;39167;52.794;6.892;2023-03-12T15:34:45;57.47;;;13.45;;
53281;SDS011;39167;52.794;6.892;2023-03-12T15:39:53;41.58;;;11.10;;
53281;SDS011;39167;52.794;6.892;2023-03-12T15:42:21;49.42;;;9.93;;
53281;SDS011;39167;52.794;6.892;2023-03-12T15:47:23;47.40;;;10.20;;
53281;SDS011;39167;52.794;6.892;2023-03-12T15:49:55;44.92;;;9.77;;
53281;SDS011;39167;52.794;6.892;2023-03-12T15:52:24;44.63;;;9.48;;
53281;SDS011;39167;52.794;6.892;2023-03-12T15:57:52;39.85;;;9.00;;
53281;SDS011;39167;52.794;6.892;2023-03-12T16:05:32;43.08;;;10.40;;
53281;SDS011;39167;52.794;6.892;2023-03-12T16:08:00;54.47;;;9.27;;
53281;SDS011;39167;52.794;6.892;2023-03-12T16:10:36;43.95;;;9.50;;
53281;SDS011;39167;52.794;6.892;2023-03-12T16:13:03;49.25;;;9.45;;
53281;SDS011;39167;52.794;6.892;2023-03-12T16:15:30;52.10;;;9.57;;
53281;SDS011;39167;52.794;6.892;2023-03-12T16:18:00;35.80;;;8.60;;
53281;SDS011;39167;52.794;6.892;2023-03-12T16:20:26;40.72;;;8.25;;
53281;SDS011;39167;52.794;6.892;2023-03-12T16:22:52;45.25;;;8.80;;
53281;SDS011;39167;52.794;6.892;2023-03-12T16:25:17;38.53;;;8.07;;
53281;SDS011;39167;52.794;6.892;2023-03-12T16:27:47;39.55;;;8.15;;
53281;SDS011;39167;52.794;6.892;2023-03-12T16:30:26;49.47;;;8.20;;
53281;SDS011;39167;52.794;6.892;2023-03-12T16:32:54;42.25;;;7.90;;
53281;SDS011;39167;52.794;6.892;2023-03-12T16:35:20;46.78;;;8.43;;
53281;SDS011;39167;52.794;6.892;2023-03-12T16:37:46;40.33;;;7.60;;
53281;SDS011;39167;52.794;6.892;2023-03-12T16:40:13;41.67;;;7.70;;
53281;SDS011;39167;52.794;6.892;2023-03-12T16:42:41;41.75;;;7.35;;
53281;SDS011;39167;52.794;6.892;2023-03-12T16:45:10;37.67;;;7.63;;